createdAt,value
2022-10-10T00:02:25.504Z,98087.22
2022-10-10T00:07:27.957Z,98084.47
2022-10-10T00:12:30.300Z,98084.69
2022-10-10T00:17:33.503Z,98085.78
2022-10-10T00:22:35.839Z,98077.69
2022-10-10T00:27:38.895Z,98070.75
2022-10-10T00:32:41.319Z,98078.97
2022-10-10T00:37:43.951Z,98079.88
2022-10-10T00:42:46.622Z,98083.31
2022-10-10T00:47:51.672Z,98075.47
2022-10-10T00:52:54.403Z,98069.56
2022-10-10T00:57:57.377Z,98067.56
2022-10-10T01:02:59.768Z,98063.91
2022-10-10T01:08:05.770Z,98066.66
2022-10-10T01:13:29.798Z,98052.91
2022-10-10T01:18:52.077Z,98056.94
2022-10-10T01:24:02.723Z,98047.69
2022-10-10T01:29:31.367Z,98043.78
2022-10-10T01:35:09.382Z,98038.25
2022-10-10T01:40:15.372Z,98040.84
2022-10-10T01:45:17.987Z,98042.72
2022-10-10T01:50:24.475Z,98027.94
2022-10-10T01:55:32.124Z,98034.09
2022-10-10T02:00:48.641Z,98029.78
2022-10-10T02:06:00.450Z,98024.84
2022-10-10T02:11:09.484Z,98034.63
2022-10-10T02:16:23.650Z,98022.97
2022-10-10T02:21:26.898Z,98033.44
2022-10-10T02:26:31.109Z,98031.59
2022-10-10T02:31:47.069Z,98034.38
2022-10-10T02:36:54.435Z,98029.16
2022-10-10T02:41:56.900Z,98026.09
2022-10-10T02:46:59.602Z,98020.69
2022-10-10T02:52:02.950Z,98025.47
2022-10-10T02:57:05.412Z,98031.44
2022-10-10T03:02:08.203Z,98023.28
2022-10-10T03:07:10.787Z,98024.94
2022-10-10T03:12:13.333Z,98031.94
2022-10-10T03:17:16.277Z,98035.38
2022-10-10T03:22:18.668Z,98028.28
2022-10-10T03:27:21.080Z,98032.50
2022-10-10T03:32:23.450Z,98018.09
2022-10-10T03:37:25.803Z,98022.84
2022-10-10T03:42:28.122Z,98019.84
2022-10-10T03:47:30.459Z,98030.34
2022-10-10T03:52:32.839Z,98012.69
2022-10-10T03:57:35.249Z,98013.63
2022-10-10T04:02:37.628Z,98022.53
2022-10-10T04:07:41.667Z,98028.75
2022-10-10T04:12:44.462Z,98022.06
2022-10-10T04:17:46.904Z,98019.81
2022-10-10T04:22:49.595Z,98028.72
2022-10-10T04:27:53.618Z,98022.06
2022-10-10T04:32:57.501Z,98012.28
2022-10-10T04:37:59.928Z,98014.41
2022-10-10T04:43:02.331Z,98016.13
2022-10-10T04:48:04.769Z,98007.56
2022-10-10T04:53:07.495Z,98009.38
2022-10-10T04:58:09.829Z,98013.47
2022-10-10T05:03:14.201Z,98005.91
2022-10-10T05:08:16.717Z,98014.19
2022-10-10T05:13:21.624Z,98009.09
2022-10-10T05:18:23.974Z,98010.06
2022-10-10T05:23:26.311Z,98020.56
2022-10-10T05:28:28.766Z,98017.56
2022-10-10T05:33:31.146Z,98020.91
2022-10-10T05:38:33.864Z,98023.28
2022-10-10T05:43:36.445Z,98025.63
2022-10-10T05:48:38.778Z,98036.00
2022-10-10T05:53:41.233Z,98043.78
2022-10-10T05:58:44.771Z,98033.22
2022-10-10T06:03:52.813Z,98027.25
2022-10-10T06:08:55.976Z,98029.75
2022-10-10T06:13:58.359Z,98043.59
2022-10-10T06:19:00.811Z,98037.09
2022-10-10T06:24:03.259Z,98043.78
2022-10-10T06:29:05.658Z,98040.81
2022-10-10T06:34:08.118Z,98063.16
2022-10-10T06:39:10.538Z,98059.22
2022-10-10T06:44:13.861Z,98068.09
2022-10-10T06:49:16.655Z,98066.31
2022-10-10T06:54:19.074Z,98069.13
2022-10-10T06:59:21.421Z,98071.41
2022-10-10T07:04:23.838Z,98085.47
2022-10-10T07:09:26.224Z,98081.25
2022-10-10T07:14:28.604Z,98080.75
2022-10-10T07:19:31.015Z,98084.13
2022-10-10T07:24:33.537Z,98094.50
2022-10-10T07:29:36.157Z,98094.16
2022-10-10T07:34:38.611Z,98098.44
2022-10-10T07:39:41.053Z,98099.03
2022-10-10T07:44:43.561Z,98107.59
2022-10-10T07:49:46.008Z,98107.56
2022-10-10T07:54:48.963Z,98115.25
2022-10-10T07:59:51.348Z,98111.34
2022-10-10T08:04:53.697Z,98110.16
2022-10-10T08:09:56.190Z,98122.66
2022-10-10T08:14:59.519Z,98119.81
2022-10-10T08:20:02.084Z,98124.38
2022-10-10T08:25:05.022Z,98121.16
2022-10-10T08:30:07.622Z,98115.44
2022-10-10T08:35:09.982Z,98113.31
2022-10-10T08:40:19.881Z,98112.31
2022-10-10T08:45:27.105Z,98111.53
2022-10-10T08:50:44.844Z,98106.00
2022-10-10T08:55:48.108Z,98106.53
2022-10-10T09:01:27.992Z,98111.47
2022-10-10T09:07:05.833Z,98111.50
2022-10-10T09:12:17.162Z,98107.81
2022-10-10T09:17:19.543Z,98119.28
2022-10-10T09:22:28.137Z,98115.66
2022-10-10T09:27:36.332Z,98124.19
2022-10-10T09:32:56.365Z,98126.09
2022-10-10T09:38:14.236Z,98139.31
2022-10-10T09:43:20.076Z,98128.84
2022-10-10T09:48:32.930Z,98129.06
2022-10-10T09:53:35.542Z,98123.94
2022-10-10T09:58:44.583Z,98134.22
2022-10-10T10:04:27.668Z,98130.00
2022-10-10T10:09:31.464Z,98129.84
2022-10-10T10:14:38.658Z,98133.72
2022-10-10T10:19:44.431Z,98138.81
2022-10-10T10:24:47.187Z,98130.88
2022-10-10T10:29:53.169Z,98129.03
2022-10-10T10:35:52.063Z,98138.34
2022-10-10T10:41:23.258Z,98125.81
2022-10-10T10:46:46.786Z,98127.53
2022-10-10T10:52:14.336Z,98132.84
2022-10-10T10:57:36.914Z,98119.47
2022-10-10T11:03:27.886Z,98110.88
2022-10-10T11:08:56.123Z,98116.41
2022-10-10T11:14:07.321Z,98124.09
2022-10-10T11:19:18.122Z,98105.66
2022-10-10T11:24:48.275Z,98100.28
2022-10-10T11:30:07.597Z,98108.44
2022-10-10T11:35:18.526Z,98099.84
2022-10-10T11:40:35.279Z,98093.78
2022-10-10T11:45:45.252Z,98087.16
2022-10-10T11:50:59.575Z,98087.69
2022-10-10T11:56:11.017Z,98085.72
2022-10-10T12:01:42.142Z,98077.22
2022-10-10T12:06:48.209Z,98076.00
2022-10-10T12:11:54.276Z,98069.75
2022-10-10T12:16:57.917Z,98062.69
2022-10-10T12:22:05.015Z,98067.81
2022-10-10T12:27:07.382Z,98060.38
2022-10-10T12:32:15.738Z,98057.94
2022-10-10T12:37:28.471Z,98058.41
2022-10-10T12:42:46.867Z,98055.22
2022-10-10T12:48:06.471Z,98052.47
2022-10-10T12:53:12.431Z,98050.47
2022-10-10T12:58:40.785Z,98053.28
2022-10-10T13:03:48.193Z,98057.47
2022-10-10T13:08:53.675Z,98068.47
2022-10-10T13:13:57.432Z,98058.31
2022-10-10T13:19:00.378Z,98053.22
2022-10-10T13:24:06.040Z,98059.72
2022-10-10T13:29:31.018Z,98067.34
2022-10-10T13:34:40.177Z,98067.72
2022-10-10T13:39:42.937Z,98062.09
2022-10-10T13:44:48.075Z,98068.84
2022-10-10T13:49:57.486Z,98062.56
2022-10-10T13:55:22.346Z,98072.38
2022-10-10T14:00:24.807Z,98060.47
2022-10-10T14:05:32.029Z,98068.06
2022-10-10T14:10:37.086Z,98084.06
2022-10-10T14:15:42.312Z,98066.41
2022-10-10T14:20:45.880Z,98068.91
2022-10-10T14:25:49.943Z,98071.59
2022-10-10T14:30:52.569Z,98075.56
2022-10-10T14:35:57.072Z,98076.28
2022-10-10T14:41:01.108Z,98075.34
2022-10-10T14:46:03.990Z,98077.06
2022-10-10T14:51:33.673Z,98077.53
2022-10-10T14:57:09.252Z,98081.28
2022-10-10T15:01:54.821Z,98077.66
2022-10-10T15:07:12.503Z,98078.94
2022-10-10T15:12:15.634Z,98082.13
2022-10-10T15:17:18.167Z,98092.69
2022-10-10T15:22:20.609Z,98099.00
2022-10-10T15:27:23.278Z,98095.09
2022-10-10T15:32:26.239Z,98103.59
2022-10-10T15:37:28.727Z,98106.81
2022-10-10T15:42:31.373Z,98107.88
2022-10-10T15:47:33.853Z,98112.81
2022-10-10T15:52:36.756Z,98121.53
2022-10-10T15:57:39.141Z,98120.09
2022-10-10T16:02:41.525Z,98119.59
2022-10-10T16:07:48.071Z,98129.81
2022-10-10T16:12:51.748Z,98118.41
2022-10-10T16:17:54.172Z,98120.47
2022-10-10T16:22:56.564Z,98122.91
2022-10-10T16:27:58.928Z,98136.69
2022-10-10T16:33:01.394Z,98138.34
2022-10-10T16:38:04.980Z,98136.16
2022-10-10T16:43:07.391Z,98154.41
2022-10-10T16:48:10.228Z,98158.13
2022-10-10T16:53:12.593Z,98160.06
2022-10-10T16:58:15.032Z,98157.44
2022-10-10T17:03:17.649Z,98157.06
2022-10-10T17:08:20.032Z,98159.34
2022-10-10T17:13:22.456Z,98163.75
2022-10-10T17:18:24.898Z,98166.22
2022-10-10T17:23:27.580Z,98174.28
2022-10-10T17:28:32.950Z,98177.47
2022-10-10T17:33:37.324Z,98177.91
2022-10-10T17:38:40.540Z,98184.00
2022-10-10T17:43:43.449Z,98180.91
2022-10-10T17:48:46.001Z,98189.63
2022-10-10T17:53:49.586Z,98195.50
2022-10-10T17:58:52.168Z,98199.53
2022-10-10T18:03:54.594Z,98191.88
2022-10-10T18:08:57.873Z,98198.53
2022-10-10T18:14:00.805Z,98206.25
2022-10-10T18:19:08.581Z,98264.59
2022-10-10T18:24:10.951Z,98297.28
2022-10-10T18:29:14.637Z,98290.81
2022-10-10T18:34:17.091Z,98291.69
2022-10-10T18:39:19.991Z,98292.03
2022-10-10T18:44:22.435Z,98269.38
2022-10-10T18:49:25.236Z,98280.56
2022-10-10T18:54:29.805Z,98269.66
2022-10-10T18:59:32.221Z,98270.66
2022-10-10T19:04:34.664Z,98263.16
2022-10-10T19:09:37.144Z,98262.59
2022-10-10T19:14:39.508Z,98269.00
2022-10-10T19:19:44.355Z,98252.59
2022-10-10T19:24:47.443Z,98261.47
2022-10-10T19:29:51.231Z,98254.06
2022-10-10T19:34:53.610Z,98279.66
2022-10-10T19:39:56.098Z,98316.78
2022-10-10T19:44:58.515Z,98316.56
2022-10-10T19:50:00.889Z,98304.03
2022-10-10T19:55:03.466Z,98321.44
2022-10-10T20:00:07.201Z,98353.09
2022-10-10T20:05:14.038Z,98370.63
2022-10-10T20:10:17.666Z,98346.94
2022-10-10T20:15:20.126Z,98355.94
2022-10-10T20:20:22.592Z,98366.59
2022-10-10T20:25:25.079Z,98356.25
2022-10-10T20:30:27.614Z,98355.22
2022-10-10T20:35:30.064Z,98362.75
2022-10-10T20:40:32.672Z,98370.53
2022-10-10T20:45:39.419Z,98400.34
2022-10-10T20:50:43.137Z,98409.38
2022-10-10T20:55:45.793Z,98419.91
2022-10-10T21:00:48.417Z,98429.53
2022-10-10T21:06:00.676Z,98436.06
2022-10-10T21:11:05.437Z,98439.69
2022-10-10T21:16:11.057Z,98430.28
2022-10-10T21:21:13.926Z,98437.72
2022-10-10T21:26:21.742Z,98435.94
2022-10-10T21:31:29.985Z,98434.41
2022-10-10T21:36:33.469Z,98435.41
2022-10-10T21:41:36.611Z,98440.31
2022-10-10T21:46:39.016Z,98434.81
2022-10-10T21:51:45.466Z,98435.81
2022-10-10T21:56:48.033Z,98430.88
2022-10-10T22:01:50.470Z,98437.06
2022-10-10T22:06:52.860Z,98439.00
2022-10-10T22:11:55.575Z,98445.03
2022-10-10T22:16:57.931Z,98439.63
2022-10-10T22:22:00.567Z,98446.22
2022-10-10T22:27:02.946Z,98455.81
2022-10-10T22:32:05.406Z,98463.47
2022-10-10T22:37:07.764Z,98467.44
2022-10-10T22:42:10.219Z,98474.03
2022-10-10T22:47:12.864Z,98469.06
2022-10-10T22:52:15.228Z,98479.53
2022-10-10T22:57:17.609Z,98480.63
2022-10-10T23:02:20.779Z,98488.97
2022-10-10T23:07:23.138Z,98491.16
2022-10-10T23:12:25.494Z,98492.06
2022-10-10T23:17:27.905Z,98499.69
2022-10-10T23:22:30.231Z,98484.84
2022-10-10T23:27:32.581Z,98486.72
2022-10-10T23:32:34.917Z,98482.34
2022-10-10T23:37:37.525Z,98480.94
2022-10-10T23:42:39.855Z,98473.13
2022-10-10T23:47:42.224Z,98492.88
2022-10-10T23:52:44.575Z,98496.00
2022-10-10T23:57:47.039Z,98497.69
